createdAt,value
2018-05-08T00:02:02.535Z,20.90
2018-05-08T00:04:30.502Z,20.60
2018-05-08T00:06:58.531Z,20.60
2018-05-08T00:09:26.513Z,20.70
2018-05-08T00:11:54.491Z,20.80
2018-05-08T00:14:22.442Z,20.70
2018-05-08T00:16:50.406Z,20.70
2018-05-08T00:19:18.325Z,20.70
2018-05-08T00:21:46.568Z,20.70
2018-05-08T00:24:14.529Z,20.60
2018-05-08T00:26:42.428Z,20.50
2018-05-08T00:29:10.444Z,20.50
2018-05-08T00:31:39.164Z,20.60
2018-05-08T00:34:07.280Z,20.60
2018-05-08T00:36:35.220Z,20.60
2018-05-08T00:39:03.285Z,20.70
2018-05-08T00:41:31.226Z,20.50
2018-05-08T00:43:59.260Z,20.70
2018-05-08T00:46:27.220Z,20.70
2018-05-08T00:48:55.136Z,20.60
2018-05-08T00:51:23.141Z,20.60
2018-05-08T00:53:51.096Z,20.60
2018-05-08T00:56:19.005Z,20.60
2018-05-08T00:58:46.967Z,20.60
2018-05-08T01:01:14.859Z,20.50
2018-05-08T01:03:43.626Z,20.60
2018-05-08T01:06:11.580Z,20.50
2018-05-08T01:08:39.615Z,20.40
2018-05-08T01:11:07.578Z,20.50
2018-05-08T01:13:36.283Z,20.50
2018-05-08T01:16:04.370Z,20.40
2018-05-08T01:18:32.282Z,20.60
2018-05-08T01:21:00.975Z,20.50
2018-05-08T01:23:29.889Z,20.70
2018-05-08T01:25:57.877Z,20.60
2018-05-08T01:28:25.822Z,20.60
2018-05-08T01:30:54.541Z,20.60
2018-05-08T01:33:22.521Z,20.50
2018-05-08T01:35:50.523Z,20.60
2018-05-08T01:38:18.504Z,20.50
2018-05-08T01:40:47.277Z,20.50
2018-05-08T01:43:15.228Z,20.40
2018-05-08T01:45:43.967Z,20.50
2018-05-08T01:48:11.878Z,20.50
2018-05-08T01:50:39.902Z,20.30
2018-05-08T01:53:08.693Z,20.50
2018-05-08T01:55:36.678Z,20.40
2018-05-08T01:58:04.688Z,20.40
2018-05-08T02:00:32.625Z,20.30
2018-05-08T02:03:00.568Z,20.30
2018-05-08T02:05:29.287Z,20.20
2018-05-08T02:07:57.265Z,20.30
2018-05-08T02:10:25.265Z,20.20
2018-05-08T02:12:53.196Z,20.10
2018-05-08T02:15:21.099Z,20.20
2018-05-08T02:17:49.045Z,20.10
2018-05-08T02:20:17.108Z,20.00
2018-05-08T02:22:44.979Z,20.00
2018-05-08T02:25:12.921Z,20.10
2018-05-08T02:27:40.856Z,20.20
2018-05-08T02:30:08.765Z,20.20
2018-05-08T02:32:36.715Z,20.10
2018-05-08T02:35:05.450Z,20.10
2018-05-08T02:37:33.434Z,20.10
2018-05-08T02:40:01.437Z,20.10
2018-05-08T02:42:30.161Z,20.10
2018-05-08T02:44:58.080Z,20.00
2018-05-08T02:47:25.994Z,20.10
2018-05-08T02:49:54.003Z,20.00
2018-05-08T02:52:21.989Z,19.90
2018-05-08T02:54:50.677Z,20.00
2018-05-08T02:57:19.446Z,20.10
2018-05-08T02:59:47.423Z,20.10
2018-05-08T03:02:15.387Z,20.00
2018-05-08T03:04:43.311Z,19.90
2018-05-08T03:07:11.288Z,20.10
2018-05-08T03:09:39.258Z,19.80
2018-05-08T03:12:07.275Z,19.70
2018-05-08T03:14:35.178Z,19.70
2018-05-08T03:17:03.102Z,19.80
2018-05-08T03:19:31.075Z,20.00
2018-05-08T03:21:58.994Z,20.10
2018-05-08T03:24:26.908Z,20.00
2018-05-08T03:26:54.922Z,19.90
2018-05-08T03:29:22.840Z,19.90
2018-05-08T03:31:50.796Z,19.60
2018-05-08T03:34:18.794Z,19.30
2018-05-08T03:36:46.735Z,19.30
2018-05-08T03:39:14.645Z,19.40
2018-05-08T03:41:42.606Z,19.60
2018-05-08T03:44:10.510Z,19.60
2018-05-08T03:46:38.456Z,19.70
2018-05-08T03:49:07.173Z,19.50
2018-05-08T03:51:35.162Z,19.50
2018-05-08T03:54:03.074Z,19.70
2018-05-08T03:56:31.848Z,19.60
2018-05-08T03:58:59.773Z,19.60
2018-05-08T04:01:39.626Z,19.50
2018-05-08T04:04:19.307Z,19.50
2018-05-08T04:07:08.863Z,19.50
2018-05-08T04:09:36.829Z,19.40
2018-05-08T04:12:04.743Z,19.50
2018-05-08T04:14:33.546Z,19.30
2018-05-08T04:17:02.242Z,19.10
2018-05-08T04:19:30.158Z,19.20
2018-05-08T04:21:58.111Z,19.20
2018-05-08T04:24:26.036Z,19.00
2018-05-08T04:26:55.013Z,18.80
2018-05-08T04:29:23.759Z,19.00
2018-05-08T04:31:51.648Z,19.00
2018-05-08T04:34:19.586Z,19.00
2018-05-08T04:36:47.541Z,18.70
2018-05-08T04:39:15.465Z,18.70
2018-05-08T04:41:43.380Z,18.60
2018-05-08T04:44:11.341Z,18.60
2018-05-08T04:46:39.263Z,19.00
2018-05-08T04:49:07.197Z,19.10
2018-05-08T04:51:35.147Z,19.10
2018-05-08T04:54:03.183Z,19.20
2018-05-08T04:56:31.131Z,19.20
2018-05-08T04:58:59.093Z,19.30
2018-05-08T05:01:27.037Z,19.30
2018-05-08T05:03:55.049Z,19.60
2018-05-08T05:06:23.020Z,19.70
2018-05-08T05:08:51.125Z,19.70
2018-05-08T05:11:19.843Z,19.80
2018-05-08T05:13:47.791Z,19.80
2018-05-08T05:16:15.728Z,19.80
2018-05-08T05:18:43.646Z,19.80
2018-05-08T05:21:11.647Z,19.90
2018-05-08T05:23:39.630Z,20.10
2018-05-08T05:26:07.634Z,20.20
2018-05-08T05:28:36.323Z,20.40
2018-05-08T05:31:04.261Z,20.30
2018-05-08T05:33:32.203Z,20.40
2018-05-08T05:36:00.129Z,20.50
2018-05-08T05:38:28.891Z,20.40
2018-05-08T05:40:56.850Z,20.30
2018-05-08T05:43:24.866Z,20.30
2018-05-08T05:45:52.783Z,20.50
2018-05-08T05:48:20.752Z,20.60
2018-05-08T05:50:48.697Z,20.80
2018-05-08T05:53:16.635Z,20.80
2018-05-08T05:55:44.579Z,20.70
2018-05-08T05:58:12.589Z,20.70
2018-05-08T06:00:40.562Z,20.70
2018-05-08T06:03:08.531Z,20.90
2018-05-08T06:05:36.518Z,21.10
2018-05-08T06:08:04.427Z,21.20
2018-05-08T06:10:33.151Z,21.50
2018-05-08T06:13:01.112Z,21.40
2018-05-08T06:15:29.107Z,21.60
2018-05-08T06:17:57.107Z,21.60
2018-05-08T06:20:25.132Z,21.60
2018-05-08T06:22:53.059Z,21.50
2018-05-08T06:25:21.138Z,21.60
2018-05-08T06:27:49.318Z,21.70
2018-05-08T06:30:18.111Z,22.10
2018-05-08T06:32:46.804Z,22.30
2018-05-08T06:35:15.558Z,22.20
2018-05-08T06:37:43.469Z,22.20
2018-05-08T06:40:12.234Z,22.30
2018-05-08T06:42:40.962Z,22.40
2018-05-08T06:45:08.977Z,22.40
2018-05-08T06:47:36.887Z,22.40
2018-05-08T06:50:04.872Z,22.20
2018-05-08T06:52:32.796Z,22.50
2018-05-08T06:55:00.741Z,22.40
2018-05-08T06:57:28.699Z,22.50
2018-05-08T06:59:56.649Z,22.50
2018-05-08T07:02:24.567Z,22.50
2018-05-08T07:04:52.551Z,22.50
2018-05-08T07:07:21.265Z,22.50
2018-05-08T07:09:49.185Z,22.50
2018-05-08T07:12:17.178Z,22.60
2018-05-08T07:14:45.898Z,22.60
2018-05-08T07:17:13.830Z,22.50
2018-05-08T07:19:42.599Z,22.80
2018-05-08T07:22:10.597Z,22.80
2018-05-08T07:24:39.283Z,22.90
2018-05-08T07:27:07.984Z,23.00
2018-05-08T07:29:35.945Z,22.90
2018-05-08T07:32:04.641Z,23.20
2018-05-08T07:34:32.639Z,23.20
2018-05-08T07:37:00.547Z,23.10
2018-05-08T07:39:28.451Z,23.20
2018-05-08T07:41:56.450Z,23.30
2018-05-08T07:44:24.429Z,23.20
2018-05-08T07:46:52.353Z,23.20
2018-05-08T07:49:20.295Z,23.20
2018-05-08T07:51:49.156Z,23.40
2018-05-08T07:54:17.103Z,23.40
2018-05-08T07:56:45.086Z,23.30
2018-05-08T07:59:13.063Z,23.60
2018-05-08T08:01:41.026Z,23.50
2018-05-08T08:04:09.820Z,23.40
2018-05-08T08:06:37.779Z,23.40
2018-05-08T08:09:05.825Z,23.70
2018-05-08T08:11:33.770Z,23.80
2018-05-08T08:14:02.455Z,23.70
2018-05-08T08:16:31.169Z,23.80
2018-05-08T08:18:59.120Z,23.80
2018-05-08T08:21:27.932Z,23.90
2018-05-08T08:23:55.966Z,23.90
2018-05-08T08:26:23.927Z,23.90
2018-05-08T08:28:51.917Z,23.90
2018-05-08T08:31:20.612Z,24.00
2018-05-08T08:33:49.396Z,24.20
2018-05-08T08:36:18.083Z,24.30
2018-05-08T08:38:46.795Z,24.40
2018-05-08T08:41:14.808Z,24.40
2018-05-08T08:43:42.739Z,24.10
2018-05-08T08:46:10.704Z,24.20
2018-05-08T08:48:38.787Z,24.30
2018-05-08T08:51:06.724Z,24.30
2018-05-08T08:53:35.488Z,24.50
2018-05-08T08:56:03.538Z,24.50
2018-05-08T08:58:32.348Z,24.60
2018-05-08T09:01:00.240Z,24.60
2018-05-08T09:03:29.033Z,25.00
2018-05-08T09:05:57.874Z,24.90
2018-05-08T09:08:25.786Z,24.90
2018-05-08T09:10:54.600Z,24.80
2018-05-08T09:13:22.527Z,24.80
2018-05-08T09:15:50.463Z,24.70
2018-05-08T09:18:18.452Z,24.70
2018-05-08T09:20:46.392Z,24.80
2018-05-08T09:23:14.358Z,25.10
2018-05-08T09:25:42.312Z,25.10
2018-05-08T09:28:10.306Z,25.10
2018-05-08T09:30:38.622Z,25.00
2018-05-08T09:33:06.670Z,25.10
2018-05-08T09:35:34.673Z,25.00
2018-05-08T09:38:03.373Z,25.50
2018-05-08T09:40:32.230Z,25.40
2018-05-08T09:43:00.124Z,25.40
2018-05-08T09:45:28.789Z,25.50
2018-05-08T09:47:57.082Z,25.50
2018-05-08T09:50:25.817Z,25.80
2018-05-08T09:52:53.802Z,25.80
2018-05-08T09:55:21.895Z,25.80
2018-05-08T09:57:49.819Z,25.80
2018-05-08T10:00:17.814Z,25.60
2018-05-08T10:02:45.826Z,25.40
2018-05-08T10:05:14.570Z,25.40
2018-05-08T10:07:42.503Z,25.40
2018-05-08T10:10:10.416Z,25.40
2018-05-08T10:12:38.391Z,25.70
2018-05-08T10:15:06.302Z,25.90
2018-05-08T10:17:34.630Z,26.10
2018-05-08T10:20:02.615Z,26.30
2018-05-08T10:22:31.315Z,26.10
2018-05-08T10:25:00.093Z,26.00
2018-05-08T10:27:28.087Z,26.00
2018-05-08T10:29:56.092Z,26.10
2018-05-08T10:32:24.172Z,26.00
2018-05-08T10:34:52.097Z,26.50
2018-05-08T10:37:20.796Z,26.80
2018-05-08T10:39:48.793Z,26.80
2018-05-08T10:42:16.723Z,26.80
2018-05-08T10:44:45.475Z,26.90
2018-05-08T10:47:13.395Z,26.90
2018-05-08T10:49:41.311Z,27.00
2018-05-08T10:52:09.242Z,27.00
2018-05-08T10:54:37.299Z,26.50
2018-05-08T10:57:05.255Z,26.50
2018-05-08T10:59:33.907Z,26.80
2018-05-08T11:02:01.832Z,26.80
2018-05-08T11:04:29.741Z,27.00
2018-05-08T11:06:58.438Z,26.70
2018-05-08T11:09:26.386Z,26.70
2018-05-08T11:11:54.359Z,26.70
2018-05-08T11:14:22.334Z,25.90
2018-05-08T11:16:50.322Z,26.10
2018-05-08T11:19:18.305Z,26.50
2018-05-08T11:21:46.984Z,27.10
2018-05-08T11:24:15.004Z,27.10
2018-05-08T11:26:42.991Z,27.20
2018-05-08T11:29:10.918Z,27.20
2018-05-08T11:31:38.913Z,27.30
2018-05-08T11:34:06.891Z,27.20
2018-05-08T11:36:34.831Z,27.50
2018-05-08T11:39:02.830Z,27.80
2018-05-08T11:41:30.740Z,28.10
2018-05-08T11:43:58.666Z,28.50
2018-05-08T11:46:26.693Z,28.00
2018-05-08T11:48:55.410Z,27.40
2018-05-08T11:51:23.343Z,27.40
2018-05-08T11:53:52.086Z,27.20
2018-05-08T11:56:20.092Z,27.20
2018-05-08T11:58:48.081Z,27.30
2018-05-08T12:01:16.906Z,27.20
2018-05-08T12:03:44.857Z,27.20
2018-05-08T12:06:12.809Z,26.90
2018-05-08T12:08:41.616Z,26.60
2018-05-08T12:11:09.490Z,26.50
2018-05-08T12:13:37.435Z,26.10
2018-05-08T12:16:06.200Z,25.80
2018-05-08T12:18:34.200Z,25.70
2018-05-08T12:21:02.922Z,25.50
2018-05-08T12:23:30.854Z,25.50
2018-05-08T12:25:58.785Z,25.50
2018-05-08T12:28:26.725Z,25.50
2018-05-08T12:30:54.679Z,25.40
2018-05-08T12:33:22.712Z,25.40
2018-05-08T12:35:50.592Z,25.20
2018-05-08T12:38:19.352Z,25.50
2018-05-08T12:40:47.394Z,25.40
2018-05-08T12:43:15.399Z,25.40
2018-05-08T12:45:43.385Z,25.30
2018-05-08T12:48:12.128Z,24.90
2018-05-08T12:50:40.068Z,25.00
2018-05-08T12:53:08.120Z,24.90
2018-05-08T12:55:36.890Z,24.70
2018-05-08T12:58:04.931Z,24.70
2018-05-08T13:00:32.934Z,24.80
2018-05-08T13:03:00.856Z,24.80
2018-05-08T13:05:28.773Z,24.60
2018-05-08T13:07:56.777Z,24.60
2018-05-08T13:10:24.770Z,24.60
2018-05-08T13:12:52.712Z,24.60
2018-05-08T13:15:20.659Z,24.70
2018-05-08T13:17:49.338Z,24.50
2018-05-08T13:20:18.092Z,24.60
2018-05-08T13:22:46.038Z,24.60
2018-05-08T13:25:13.969Z,24.50
2018-05-08T13:27:42.631Z,24.50
2018-05-08T13:30:10.622Z,24.50
2018-05-08T13:32:39.387Z,24.60
2018-05-08T13:35:07.582Z,24.60
2018-05-08T13:37:36.387Z,24.40
2018-05-08T13:40:05.175Z,24.40
2018-05-08T13:42:33.874Z,24.40
2018-05-08T13:45:01.878Z,24.30
2018-05-08T13:47:29.879Z,24.30
2018-05-08T13:49:57.878Z,24.30
2018-05-08T13:52:26.943Z,24.10
2018-05-08T13:54:54.872Z,24.10
2018-05-08T13:57:22.805Z,24.20
2018-05-08T13:59:51.537Z,24.20
2018-05-08T14:02:19.463Z,24.10
2018-05-08T14:04:48.236Z,23.80
2018-05-08T14:07:16.171Z,23.80
2018-05-08T14:09:44.099Z,23.90
2018-05-08T14:12:12.142Z,23.90
2018-05-08T14:14:40.096Z,23.90
2018-05-08T14:17:08.074Z,23.90
2018-05-08T14:19:36.011Z,23.90
2018-05-08T14:22:03.962Z,23.70
2018-05-08T14:24:31.875Z,23.40
2018-05-08T14:26:59.854Z,23.30
2018-05-08T14:29:27.815Z,23.10
2018-05-08T14:31:55.788Z,23.10
2018-05-08T14:34:23.704Z,22.90
2018-05-08T14:36:51.741Z,22.90
2018-05-08T14:39:20.455Z,22.80
2018-05-08T14:41:48.359Z,22.80
2018-05-08T14:44:16.304Z,22.60
2018-05-08T14:46:44.223Z,22.50
2018-05-08T14:49:12.274Z,22.10
2018-05-08T14:51:40.224Z,22.20
2018-05-08T14:54:08.246Z,22.00
2018-05-08T14:56:36.955Z,21.80
2018-05-08T14:59:04.947Z,20.60
2018-05-08T15:01:32.920Z,21.80
2018-05-08T15:04:00.901Z,21.80
2018-05-08T15:06:28.839Z,21.80
2018-05-08T15:08:56.751Z,21.70
2018-05-08T15:11:24.714Z,21.30
2018-05-08T15:13:52.758Z,20.90
2018-05-08T15:16:20.754Z,20.90
2018-05-08T15:18:48.731Z,21.00
2018-05-08T15:21:16.635Z,21.00
2018-05-08T15:23:45.325Z,20.80
2018-05-08T15:26:14.082Z,20.60
2018-05-08T15:28:42.099Z,20.60
2018-05-08T15:31:10.012Z,20.70
2018-05-08T15:33:37.955Z,20.60
2018-05-08T15:36:05.916Z,20.70
2018-05-08T15:38:33.835Z,20.70
2018-05-08T15:41:01.857Z,20.70
2018-05-08T15:43:29.880Z,20.70
2018-05-08T15:45:57.788Z,20.70
2018-05-08T15:48:25.663Z,20.60
2018-05-08T15:50:53.617Z,20.70
2018-05-08T15:53:21.646Z,20.70
2018-05-08T15:55:49.548Z,20.70
2018-05-08T15:58:18.445Z,20.50
2018-05-08T16:00:46.176Z,20.50
2018-05-08T16:03:14.099Z,20.50
2018-05-08T16:05:42.097Z,20.70
2018-05-08T16:08:10.131Z,20.80
2018-05-08T16:10:38.178Z,21.00
2018-05-08T16:13:06.911Z,21.40
2018-05-08T16:15:34.868Z,21.40
2018-05-08T16:18:02.798Z,21.50
2018-05-08T16:20:31.499Z,21.10
2018-05-08T16:23:00.198Z,20.90
2018-05-08T16:25:28.204Z,20.90
2018-05-08T16:27:56.167Z,20.80
2018-05-08T16:30:24.129Z,20.80
2018-05-08T16:32:52.129Z,20.60
2018-05-08T16:35:20.051Z,20.60
2018-05-08T16:37:47.985Z,20.60
2018-05-08T16:40:16.734Z,20.90
2018-05-08T16:42:44.785Z,20.90
2018-05-08T16:45:12.778Z,21.10
2018-05-08T16:47:41.481Z,21.00
2018-05-08T16:50:09.473Z,21.00
2018-05-08T16:52:38.281Z,21.10
2018-05-08T16:55:07.113Z,21.00
2018-05-08T16:57:35.123Z,21.00
2018-05-08T17:00:04.102Z,20.90
2018-05-08T17:02:32.043Z,20.90
2018-05-08T17:05:00.022Z,20.60
2018-05-08T17:07:27.993Z,20.30
2018-05-08T17:09:56.013Z,20.30
2018-05-08T17:12:24.735Z,20.60
2018-05-08T17:14:52.634Z,20.60
2018-05-08T17:17:20.619Z,20.60
2018-05-08T17:19:48.630Z,20.40
2018-05-08T17:22:16.688Z,20.70
2018-05-08T17:24:44.673Z,20.80
2018-05-08T17:27:12.591Z,20.80
2018-05-08T17:29:40.584Z,20.80
2018-05-08T17:32:09.260Z,20.40
2018-05-08T17:34:37.952Z,20.40
2018-05-08T17:37:06.686Z,20.30
2018-05-08T17:39:34.620Z,20.30
2018-05-08T17:42:02.577Z,20.50
2018-05-08T17:44:31.231Z,20.50
2018-05-08T17:46:59.242Z,20.50
2018-05-08T17:49:27.945Z,20.80
2018-05-08T17:51:55.928Z,20.80
2018-05-08T17:54:23.839Z,20.60
2018-05-08T17:56:51.783Z,20.60
2018-05-08T17:59:19.733Z,20.60
2018-05-08T18:01:47.663Z,20.80
2018-05-08T18:04:16.543Z,20.80
2018-05-08T18:06:44.502Z,20.80
2018-05-08T18:09:12.576Z,20.70
2018-05-08T18:11:40.598Z,20.70
2018-05-08T18:14:08.537Z,20.60
2018-05-08T18:16:37.358Z,20.70
2018-05-08T18:19:05.314Z,20.70
2018-05-08T18:21:33.313Z,20.50
2018-05-08T18:24:01.286Z,20.60
2018-05-08T18:26:29.220Z,20.50
2018-05-08T18:28:57.186Z,20.60
2018-05-08T18:31:25.867Z,20.50
2018-05-08T18:33:54.566Z,20.50
2018-05-08T18:36:22.558Z,20.50
2018-05-08T18:38:50.546Z,20.50
2018-05-08T18:41:18.505Z,20.50
2018-05-08T18:43:46.446Z,20.40
2018-05-08T18:46:14.470Z,20.50
2018-05-08T18:48:42.416Z,20.60
2018-05-08T18:51:10.407Z,20.50
2018-05-08T18:53:38.326Z,20.40
2018-05-08T18:56:06.311Z,20.60
2018-05-08T18:58:34.246Z,20.60
2018-05-08T19:01:03.010Z,20.40
2018-05-08T19:03:31.094Z,20.50
2018-05-08T19:05:58.997Z,20.50
2018-05-08T19:08:26.919Z,20.60
2018-05-08T19:11:00.547Z,20.50
2018-05-08T19:13:29.230Z,20.60
2018-05-08T19:16:04.032Z,20.50
2018-05-08T19:18:37.725Z,20.40
2018-05-08T19:21:05.667Z,20.40
2018-05-08T19:23:33.673Z,20.40
2018-05-08T19:26:01.640Z,20.40
2018-05-08T19:28:35.241Z,20.10
2018-05-08T19:31:03.139Z,19.90
2018-05-08T19:33:31.869Z,19.90
2018-05-08T19:36:05.370Z,19.90
2018-05-08T19:38:33.425Z,20.00
2018-05-08T19:41:01.350Z,19.90
2018-05-08T19:43:29.474Z,20.10
2018-05-08T19:45:57.383Z,19.80
2018-05-08T19:48:25.370Z,19.70
2018-05-08T19:50:53.398Z,19.60
2018-05-08T19:53:21.373Z,19.30
2018-05-08T19:55:49.308Z,19.20
2018-05-08T19:58:17.266Z,19.10
2018-05-08T20:00:46.030Z,19.10
2018-05-08T20:03:13.950Z,19.10
2018-05-08T20:05:41.919Z,19.40
2018-05-08T20:08:09.858Z,19.40
2018-05-08T20:10:38.586Z,19.70
2018-05-08T20:13:06.617Z,19.70
2018-05-08T20:15:35.416Z,19.80
2018-05-08T20:18:03.361Z,19.70
2018-05-08T20:20:32.099Z,19.60
2018-05-08T20:23:00.052Z,19.50
2018-05-08T20:25:27.961Z,19.70
2018-05-08T20:27:55.978Z,19.40
2018-05-08T20:30:24.748Z,19.40
2018-05-08T20:32:53.462Z,19.40
2018-05-08T20:35:21.476Z,19.40
2018-05-08T20:37:49.474Z,19.60
2018-05-08T20:40:18.218Z,19.70
2018-05-08T20:42:46.159Z,19.70
2018-05-08T20:45:14.295Z,19.70
2018-05-08T20:47:42.290Z,19.80
2018-05-08T20:50:11.054Z,19.70
2018-05-08T20:52:39.212Z,19.70
2018-05-08T20:55:07.254Z,19.80
2018-05-08T20:57:35.187Z,19.70
2018-05-08T21:00:03.998Z,19.70
2018-05-08T21:02:32.055Z,19.70
2018-05-08T21:05:00.891Z,19.70
2018-05-08T21:07:28.827Z,19.70
2018-05-08T21:09:56.806Z,19.80
2018-05-08T21:12:24.735Z,19.80
2018-05-08T21:14:53.482Z,19.90
2018-05-08T21:17:21.450Z,19.90
2018-05-08T21:19:49.440Z,19.90
2018-05-08T21:22:17.520Z,19.80
2018-05-08T21:24:45.454Z,19.90
2018-05-08T21:27:14.301Z,20.10
2018-05-08T21:29:48.689Z,20.00
2018-05-08T21:32:16.623Z,20.00
2018-05-08T21:34:44.533Z,20.00
2018-05-08T21:37:12.575Z,19.90
2018-05-08T21:39:40.531Z,19.80
2018-05-08T21:42:08.487Z,19.70
2018-05-08T21:44:36.411Z,19.60
2018-05-08T21:47:04.386Z,19.70
2018-05-08T21:49:32.336Z,19.80
2018-05-08T21:52:00.281Z,19.80
2018-05-08T21:54:28.310Z,19.80
2018-05-08T21:56:57.082Z,19.60
2018-05-08T21:59:25.029Z,19.60
2018-05-08T22:01:53.033Z,19.70
2018-05-08T22:04:21.692Z,19.50
2018-05-08T22:06:49.701Z,19.50
2018-05-08T22:09:18.421Z,19.20
2018-05-08T22:11:46.350Z,19.20
2018-05-08T22:14:15.039Z,19.10
2018-05-08T22:16:43.738Z,19.00
2018-05-08T22:19:11.630Z,19.00
2018-05-08T22:21:39.539Z,19.00
2018-05-08T22:24:07.614Z,18.90
2018-05-08T22:26:35.616Z,18.90
2018-05-08T22:29:04.358Z,18.80
2018-05-08T22:31:32.322Z,18.70
2018-05-08T22:34:00.219Z,18.70
2018-05-08T22:36:28.242Z,18.60
2018-05-08T22:38:56.152Z,18.70
2018-05-08T22:41:24.144Z,18.50
2018-05-08T22:43:52.846Z,18.50
2018-05-08T22:46:20.845Z,18.50
2018-05-08T22:48:48.751Z,18.40
2018-05-08T22:51:16.730Z,18.50
2018-05-08T22:53:45.431Z,18.70
2018-05-08T22:56:14.129Z,18.80
2018-05-08T22:58:42.055Z,18.70
2018-05-08T23:01:09.991Z,18.40
2018-05-08T23:03:37.974Z,18.30
2018-05-08T23:06:05.910Z,18.30
2018-05-08T23:08:33.907Z,18.30
2018-05-08T23:11:01.882Z,18.20
2018-05-08T23:13:29.827Z,18.00
2018-05-08T23:15:57.720Z,18.00
2018-05-08T23:18:25.675Z,18.10
2018-05-08T23:20:53.630Z,18.00
2018-05-08T23:23:21.594Z,18.10
2018-05-08T23:25:49.543Z,18.20
2018-05-08T23:28:18.272Z,18.00
2018-05-08T23:30:46.261Z,17.90
2018-05-08T23:33:14.299Z,18.00
2018-05-08T23:35:42.260Z,17.90
2018-05-08T23:38:10.258Z,17.70
2018-05-08T23:40:38.299Z,17.70
2018-05-08T23:43:06.296Z,17.80
2018-05-08T23:45:34.297Z,17.80
2018-05-08T23:48:02.206Z,17.90
2018-05-08T23:50:30.191Z,17.70
2018-05-08T23:52:58.240Z,17.70
2018-05-08T23:55:26.178Z,17.70
2018-05-08T23:57:54.136Z,17.70
